Norton, Kansas
Current Conditions -  °F | °C
As of 6:53 PM on Tuesday 27 Jan 2015 (Local Time) from KHLC Reporting Station
Clear Clear  
Wind Chill: 56°   Ceiling: Unl
Heat Index: 56°   Visibility: 10mi
Dew Point: 30°   Wind: 3mph
Humidity: 37%   Direction: 70°ENE
Pressure: 29.94"   Gusts: NA
Location:  39.83°N, 99.89°W
Report Text: KHLC 280053Z AUTO 07003KT 10SM CLR 13/M01 A2994 RMK AO2 SLP144 T01331011
Loading
Personal Weather Stations






























Interactive Weather Map New forecast layout! Learn more

10-Day Weather Forecast

Advertisements
Track Severe Weather on mobile